sensor_id;sensor_type;location;lat;lon;timestamp;P1;durP1;ratioP1;P2;durP2;ratioP2
13660;SDS011;6903;49.480;11.102;2023-06-26T00:02:08;9.50;;;8.30;;
13660;SDS011;6903;49.480;11.102;2023-06-26T00:04:34;9.82;;;8.05;;
13660;SDS011;6903;49.480;11.102;2023-06-26T00:07:00;9.85;;;8.75;;
13660;SDS011;6903;49.480;11.102;2023-06-26T00:09:26;8.68;;;7.75;;
13660;SDS011;6903;49.480;11.102;2023-06-26T00:11:51;8.63;;;7.72;;
13660;SDS011;6903;49.480;11.102;2023-06-26T00:14:17;8.35;;;7.55;;
13660;SDS011;6903;49.480;11.102;2023-06-26T00:16:45;8.48;;;7.60;;
13660;SDS011;6903;49.480;11.102;2023-06-26T00:19:11;8.30;;;7.50;;
13660;SDS011;6903;49.480;11.102;2023-06-26T00:21:36;9.35;;;7.80;;
13660;SDS011;6903;49.480;11.102;2023-06-26T00:24:01;9.00;;;7.95;;
13660;SDS011;6903;49.480;11.102;2023-06-26T00:26:27;8.88;;;7.97;;
13660;SDS011;6903;49.480;11.102;2023-06-26T00:28:52;8.68;;;7.78;;
13660;SDS011;6903;49.480;11.102;2023-06-26T00:31:17;8.90;;;7.72;;
13660;SDS011;6903;49.480;11.102;2023-06-26T00:33:43;9.35;;;7.55;;
13660;SDS011;6903;49.480;11.102;2023-06-26T00:36:08;8.70;;;7.75;;
13660;SDS011;6903;49.480;11.102;2023-06-26T00:38:34;9.07;;;7.72;;
13660;SDS011;6903;49.480;11.102;2023-06-26T00:41:00;10.07;;;8.50;;
13660;SDS011;6903;49.480;11.102;2023-06-26T00:43:25;10.57;;;8.23;;
13660;SDS011;6903;49.480;11.102;2023-06-26T00:45:50;11.20;;;8.70;;
13660;SDS011;6903;49.480;11.102;2023-06-26T00:48:16;9.75;;;8.65;;
13660;SDS011;6903;49.480;11.102;2023-06-26T00:50:41;11.50;;;8.82;;
13660;SDS011;6903;49.480;11.102;2023-06-26T00:53:09;11.07;;;9.45;;
13660;SDS011;6903;49.480;11.102;2023-06-26T00:55:34;10.23;;;8.60;;
13660;SDS011;6903;49.480;11.102;2023-06-26T00:58:00;10.73;;;8.38;;
13660;SDS011;6903;49.480;11.102;2023-06-26T01:00:26;9.20;;;7.78;;
13660;SDS011;6903;49.480;11.102;2023-06-26T01:02:51;9.23;;;8.15;;
13660;SDS011;6903;49.480;11.102;2023-06-26T01:05:16;11.55;;;8.05;;
13660;SDS011;6903;49.480;11.102;2023-06-26T01:07:45;12.15;;;8.90;;
13660;SDS011;6903;49.480;11.102;2023-06-26T01:10:14;10.13;;;8.82;;
13660;SDS011;6903;49.480;11.102;2023-06-26T01:12:40;9.85;;;8.55;;
13660;SDS011;6903;49.480;11.102;2023-06-26T01:15:05;9.85;;;8.82;;
13660;SDS011;6903;49.480;11.102;2023-06-26T01:17:31;10.48;;;8.57;;
13660;SDS011;6903;49.480;11.102;2023-06-26T01:19:58;9.05;;;8.15;;
13660;SDS011;6903;49.480;11.102;2023-06-26T01:28:03;11.03;;;8.50;;
13660;SDS011;6903;49.480;11.102;2023-06-26T01:30:30;10.47;;;8.87;;
13660;SDS011;6903;49.480;11.102;2023-06-26T01:32:57;12.27;;;8.90;;
13660;SDS011;6903;49.480;11.102;2023-06-26T01:35:23;9.67;;;8.63;;
13660;SDS011;6903;49.480;11.102;2023-06-26T01:37:49;10.32;;;8.88;;
13660;SDS011;6903;49.480;11.102;2023-06-26T01:40:14;10.23;;;8.97;;
13660;SDS011;6903;49.480;11.102;2023-06-26T01:42:40;11.10;;;8.97;;
13660;SDS011;6903;49.480;11.102;2023-06-26T01:45:10;11.40;;;9.13;;
13660;SDS011;6903;49.480;11.102;2023-06-26T01:47:56;11.18;;;9.00;;
13660;SDS011;6903;49.480;11.102;2023-06-26T01:50:26;9.47;;;8.50;;
13660;SDS011;6903;49.480;11.102;2023-06-26T01:53:02;10.73;;;9.43;;
13660;SDS011;6903;49.480;11.102;2023-06-26T01:55:42;11.43;;;9.63;;
13660;SDS011;6903;49.480;11.102;2023-06-26T01:58:13;10.57;;;8.77;;
13660;SDS011;6903;49.480;11.102;2023-06-26T02:00:39;11.53;;;9.53;;
13660;SDS011;6903;49.480;11.102;2023-06-26T02:03:05;11.27;;;9.63;;
13660;SDS011;6903;49.480;11.102;2023-06-26T02:05:31;10.40;;;9.27;;
13660;SDS011;6903;49.480;11.102;2023-06-26T02:07:57;11.10;;;9.47;;
13660;SDS011;6903;49.480;11.102;2023-06-26T02:10:22;11.97;;;9.90;;
13660;SDS011;6903;49.480;11.102;2023-06-26T02:12:47;11.90;;;10.37;;
13660;SDS011;6903;49.480;11.102;2023-06-26T02:15:13;13.13;;;9.20;;
13660;SDS011;6903;49.480;11.102;2023-06-26T02:17:38;12.43;;;9.70;;
13660;SDS011;6903;49.480;11.102;2023-06-26T02:20:04;10.20;;;9.03;;
13660;SDS011;6903;49.480;11.102;2023-06-26T02:22:30;13.10;;;9.37;;
13660;SDS011;6903;49.480;11.102;2023-06-26T02:24:56;11.67;;;8.57;;
13660;SDS011;6903;49.480;11.102;2023-06-26T02:27:21;11.37;;;8.43;;
13660;SDS011;6903;49.480;11.102;2023-06-26T02:29:46;10.90;;;8.97;;
13660;SDS011;6903;49.480;11.102;2023-06-26T02:32:12;11.30;;;9.33;;
13660;SDS011;6903;49.480;11.102;2023-06-26T02:34:37;10.83;;;8.77;;
13660;SDS011;6903;49.480;11.102;2023-06-26T02:37:02;10.00;;;9.00;;
13660;SDS011;6903;49.480;11.102;2023-06-26T02:39:28;10.03;;;8.90;;
13660;SDS011;6903;49.480;11.102;2023-06-26T02:41:53;11.27;;;8.60;;
13660;SDS011;6903;49.480;11.102;2023-06-26T02:44:19;9.83;;;8.30;;
13660;SDS011;6903;49.480;11.102;2023-06-26T02:46:44;12.20;;;9.60;;
13660;SDS011;6903;49.480;11.102;2023-06-26T02:49:09;10.50;;;9.40;;
13660;SDS011;6903;49.480;11.102;2023-06-26T02:51:35;11.03;;;9.77;;
13660;SDS011;6903;49.480;11.102;2023-06-26T02:54:00;11.33;;;9.50;;
13660;SDS011;6903;49.480;11.102;2023-06-26T02:56:26;11.73;;;10.10;;
13660;SDS011;6903;49.480;11.102;2023-06-26T02:58:55;13.17;;;10.03;;
13660;SDS011;6903;49.480;11.102;2023-06-26T03:01:21;12.00;;;9.97;;
13660;SDS011;6903;49.480;11.102;2023-06-26T03:03:46;12.97;;;10.50;;
13660;SDS011;6903;49.480;11.102;2023-06-26T03:06:12;10.73;;;9.60;;
13660;SDS011;6903;49.480;11.102;2023-06-26T03:08:38;13.83;;;10.30;;
13660;SDS011;6903;49.480;11.102;2023-06-26T03:11:04;12.57;;;10.27;;
13660;SDS011;6903;49.480;11.102;2023-06-26T03:13:30;11.37;;;10.10;;
13660;SDS011;6903;49.480;11.102;2023-06-26T03:15:55;11.30;;;10.10;;
13660;SDS011;6903;49.480;11.102;2023-06-26T03:18:21;12.43;;;10.33;;
13660;SDS011;6903;49.480;11.102;2023-06-26T03:20:46;11.57;;;9.73;;
13660;SDS011;6903;49.480;11.102;2023-06-26T03:23:13;12.90;;;10.07;;
13660;SDS011;6903;49.480;11.102;2023-06-26T03:25:38;12.60;;;10.50;;
13660;SDS011;6903;49.480;11.102;2023-06-26T03:28:03;11.90;;;9.20;;
13660;SDS011;6903;49.480;11.102;2023-06-26T03:30:29;10.73;;;9.27;;
13660;SDS011;6903;49.480;11.102;2023-06-26T03:32:54;11.73;;;9.07;;
13660;SDS011;6903;49.480;11.102;2023-06-26T03:35:19;10.53;;;9.30;;
13660;SDS011;6903;49.480;11.102;2023-06-26T03:37:44;10.43;;;9.33;;
13660;SDS011;6903;49.480;11.102;2023-06-26T03:40:10;12.37;;;9.87;;
13660;SDS011;6903;49.480;11.102;2023-06-26T03:42:35;11.73;;;9.50;;
13660;SDS011;6903;49.480;11.102;2023-06-26T03:45:01;11.17;;;9.77;;
13660;SDS011;6903;49.480;11.102;2023-06-26T03:47:26;11.23;;;9.40;;
13660;SDS011;6903;49.480;11.102;2023-06-26T03:49:51;10.23;;;9.13;;
13660;SDS011;6903;49.480;11.102;2023-06-26T03:52:16;9.70;;;8.27;;
13660;SDS011;6903;49.480;11.102;2023-06-26T03:54:42;9.63;;;7.68;;
13660;SDS011;6903;49.480;11.102;2023-06-26T03:57:07;10.27;;;7.60;;
13660;SDS011;6903;49.480;11.102;2023-06-26T03:59:33;9.23;;;7.65;;
13660;SDS011;6903;49.480;11.102;2023-06-26T04:01:58;7.65;;;6.88;;
13660;SDS011;6903;49.480;11.102;2023-06-26T04:04:23;8.40;;;7.30;;
13660;SDS011;6903;49.480;11.102;2023-06-26T04:06:49;7.68;;;6.82;;
13660;SDS011;6903;49.480;11.102;2023-06-26T04:09:14;8.77;;;7.25;;
13660;SDS011;6903;49.480;11.102;2023-06-26T04:11:39;9.95;;;8.13;;
13660;SDS011;6903;49.480;11.102;2023-06-26T04:14:04;9.25;;;7.55;;
13660;SDS011;6903;49.480;11.102;2023-06-26T04:16:30;10.75;;;7.45;;
13660;SDS011;6903;49.480;11.102;2023-06-26T04:18:55;8.52;;;7.63;;
13660;SDS011;6903;49.480;11.102;2023-06-26T04:21:21;8.95;;;7.47;;
13660;SDS011;6903;49.480;11.102;2023-06-26T04:23:49;9.15;;;7.63;;
13660;SDS011;6903;49.480;11.102;2023-06-26T04:26:15;8.55;;;7.22;;
13660;SDS011;6903;49.480;11.102;2023-06-26T04:28:41;9.48;;;7.07;;
13660;SDS011;6903;49.480;11.102;2023-06-26T04:31:07;8.00;;;6.78;;
13660;SDS011;6903;49.480;11.102;2023-06-26T04:33:33;7.65;;;6.50;;
13660;SDS011;6903;49.480;11.102;2023-06-26T04:36:01;7.38;;;6.45;;
13660;SDS011;6903;49.480;11.102;2023-06-26T04:38:28;8.38;;;7.10;;
13660;SDS011;6903;49.480;11.102;2023-06-26T04:40:53;7.65;;;6.15;;
13660;SDS011;6903;49.480;11.102;2023-06-26T04:43:19;6.68;;;5.97;;
13660;SDS011;6903;49.480;11.102;2023-06-26T04:45:44;8.27;;;6.78;;
13660;SDS011;6903;49.480;11.102;2023-06-26T04:48:09;6.70;;;6.10;;
13660;SDS011;6903;49.480;11.102;2023-06-26T04:50:35;7.03;;;6.20;;
13660;SDS011;6903;49.480;11.102;2023-06-26T04:53:00;6.63;;;5.95;;
13660;SDS011;6903;49.480;11.102;2023-06-26T04:55:25;8.15;;;6.50;;
13660;SDS011;6903;49.480;11.102;2023-06-26T04:57:51;7.00;;;6.22;;
13660;SDS011;6903;49.480;11.102;2023-06-26T05:00:17;6.88;;;6.28;;
13660;SDS011;6903;49.480;11.102;2023-06-26T05:02:42;8.30;;;6.57;;
13660;SDS011;6903;49.480;11.102;2023-06-26T05:05:08;9.05;;;6.15;;
13660;SDS011;6903;49.480;11.102;2023-06-26T05:07:33;7.13;;;6.43;;
13660;SDS011;6903;49.480;11.102;2023-06-26T05:09:58;6.82;;;6.22;;
13660;SDS011;6903;49.480;11.102;2023-06-26T05:12:24;7.38;;;6.60;;
13660;SDS011;6903;49.480;11.102;2023-06-26T05:14:49;7.03;;;6.22;;
13660;SDS011;6903;49.480;11.102;2023-06-26T05:17:14;9.23;;;6.60;;
13660;SDS011;6903;49.480;11.102;2023-06-26T05:19:40;8.18;;;6.50;;
13660;SDS011;6903;49.480;11.102;2023-06-26T05:22:05;7.65;;;6.85;;
13660;SDS011;6903;49.480;11.102;2023-06-26T05:24:35;7.53;;;6.78;;
13660;SDS011;6903;49.480;11.102;2023-06-26T05:27:01;7.75;;;6.95;;
13660;SDS011;6903;49.480;11.102;2023-06-26T05:29:27;8.30;;;6.30;;
13660;SDS011;6903;49.480;11.102;2023-06-26T05:31:52;8.88;;;6.97;;
13660;SDS011;6903;49.480;11.102;2023-06-26T05:34:19;7.72;;;6.93;;
13660;SDS011;6903;49.480;11.102;2023-06-26T05:36:47;8.18;;;6.80;;
13660;SDS011;6903;49.480;11.102;2023-06-26T05:39:15;6.97;;;6.28;;
13660;SDS011;6903;49.480;11.102;2023-06-26T05:41:42;6.60;;;6.00;;
13660;SDS011;6903;49.480;11.102;2023-06-26T05:44:08;7.43;;;6.70;;
13660;SDS011;6903;49.480;11.102;2023-06-26T05:46:34;8.32;;;6.68;;
13660;SDS011;6903;49.480;11.102;2023-06-26T05:48:59;8.70;;;6.53;;
13660;SDS011;6903;49.480;11.102;2023-06-26T05:51:26;6.95;;;6.25;;
13660;SDS011;6903;49.480;11.102;2023-06-26T05:53:51;7.00;;;6.40;;
13660;SDS011;6903;49.480;11.102;2023-06-26T05:56:17;7.28;;;6.57;;
13660;SDS011;6903;49.480;11.102;2023-06-26T05:58:43;6.85;;;6.15;;
13660;SDS011;6903;49.480;11.102;2023-06-26T06:01:09;6.50;;;6.00;;
13660;SDS011;6903;49.480;11.102;2023-06-26T06:03:34;6.95;;;6.32;;
13660;SDS011;6903;49.480;11.102;2023-06-26T06:05:59;6.75;;;6.05;;
13660;SDS011;6903;49.480;11.102;2023-06-26T06:08:25;7.43;;;6.28;;
13660;SDS011;6903;49.480;11.102;2023-06-26T06:10:50;6.93;;;6.22;;
13660;SDS011;6903;49.480;11.102;2023-06-26T06:13:15;6.93;;;6.03;;
13660;SDS011;6903;49.480;11.102;2023-06-26T06:15:41;7.50;;;6.80;;
13660;SDS011;6903;49.480;11.102;2023-06-26T06:18:06;6.60;;;6.00;;
13660;SDS011;6903;49.480;11.102;2023-06-26T06:20:31;7.65;;;6.85;;
13660;SDS011;6903;49.480;11.102;2023-06-26T06:22:57;7.30;;;6.15;;
13660;SDS011;6903;49.480;11.102;2023-06-26T06:25:22;7.05;;;6.35;;
13660;SDS011;6903;49.480;11.102;2023-06-26T06:27:47;7.57;;;6.57;;
13660;SDS011;6903;49.480;11.102;2023-06-26T06:30:13;7.00;;;6.30;;
13660;SDS011;6903;49.480;11.102;2023-06-26T06:32:38;6.57;;;5.82;;
13660;SDS011;6903;49.480;11.102;2023-06-26T06:35:03;7.07;;;6.38;;
13660;SDS011;6903;49.480;11.102;2023-06-26T06:37:34;6.80;;;6.10;;
13660;SDS011;6903;49.480;11.102;2023-06-26T06:40:00;6.95;;;6.25;;
13660;SDS011;6903;49.480;11.102;2023-06-26T06:42:25;6.60;;;6.00;;
13660;SDS011;6903;49.480;11.102;2023-06-26T06:44:50;6.60;;;6.00;;
13660;SDS011;6903;49.480;11.102;2023-06-26T06:47:15;6.63;;;6.03;;
13660;SDS011;6903;49.480;11.102;2023-06-26T06:49:41;7.18;;;6.40;;
13660;SDS011;6903;49.480;11.102;2023-06-26T06:52:06;7.13;;;6.45;;
13660;SDS011;6903;49.480;11.102;2023-06-26T06:54:32;6.88;;;5.90;;
13660;SDS011;6903;49.480;11.102;2023-06-26T06:57:23;7.53;;;6.38;;
13660;SDS011;6903;49.480;11.102;2023-06-26T06:59:49;6.90;;;6.13;;
13660;SDS011;6903;49.480;11.102;2023-06-26T07:02:19;6.47;;;5.97;;
13660;SDS011;6903;49.480;11.102;2023-06-26T07:04:44;6.65;;;5.88;;
13660;SDS011;6903;49.480;11.102;2023-06-26T07:07:09;5.90;;;5.40;;
13660;SDS011;6903;49.480;11.102;2023-06-26T07:09:35;6.70;;;6.10;;
13660;SDS011;6903;49.480;11.102;2023-06-26T07:12:01;6.68;;;6.07;;
13660;SDS011;6903;49.480;11.102;2023-06-26T07:14:27;6.72;;;6.13;;
13660;SDS011;6903;49.480;11.102;2023-06-26T07:16:53;6.93;;;6.32;;
13660;SDS011;6903;49.480;11.102;2023-06-26T07:19:18;6.47;;;5.88;;
13660;SDS011;6903;49.480;11.102;2023-06-26T07:21:43;7.20;;;6.60;;
13660;SDS011;6903;49.480;11.102;2023-06-26T07:24:11;6.47;;;5.85;;
13660;SDS011;6903;49.480;11.102;2023-06-26T07:26:36;7.18;;;6.10;;
13660;SDS011;6903;49.480;11.102;2023-06-26T07:29:01;6.97;;;6.28;;
13660;SDS011;6903;49.480;11.102;2023-06-26T07:31:27;7.10;;;6.38;;
13660;SDS011;6903;49.480;11.102;2023-06-26T07:33:52;6.57;;;6.07;;
13660;SDS011;6903;49.480;11.102;2023-06-26T07:36:17;7.38;;;6.68;;
13660;SDS011;6903;49.480;11.102;2023-06-26T07:38:43;7.90;;;6.60;;
13660;SDS011;6903;49.480;11.102;2023-06-26T07:41:08;6.55;;;5.93;;
13660;SDS011;6903;49.480;11.102;2023-06-26T07:43:33;8.32;;;6.30;;
13660;SDS011;6903;49.480;11.102;2023-06-26T07:45:59;7.15;;;6.55;;
13660;SDS011;6903;49.480;11.102;2023-06-26T07:48:24;6.88;;;6.28;;
13660;SDS011;6903;49.480;11.102;2023-06-26T07:50:50;6.68;;;6.07;;
13660;SDS011;6903;49.480;11.102;2023-06-26T07:53:16;8.70;;;6.30;;
13660;SDS011;6903;49.480;11.102;2023-06-26T07:55:41;7.57;;;6.88;;
13660;SDS011;6903;49.480;11.102;2023-06-26T07:58:07;8.60;;;6.88;;
13660;SDS011;6903;49.480;11.102;2023-06-26T08:00:32;7.97;;;6.45;;
13660;SDS011;6903;49.480;11.102;2023-06-26T08:02:58;9.00;;;6.93;;
13660;SDS011;6903;49.480;11.102;2023-06-26T08:05:23;8.82;;;6.50;;
13660;SDS011;6903;49.480;11.102;2023-06-26T08:07:48;7.63;;;6.82;;
13660;SDS011;6903;49.480;11.102;2023-06-26T08:10:13;7.85;;;7.15;;
13660;SDS011;6903;49.480;11.102;2023-06-26T08:12:39;7.75;;;7.07;;
13660;SDS011;6903;49.480;11.102;2023-06-26T08:15:05;8.48;;;7.55;;
13660;SDS011;6903;49.480;11.102;2023-06-26T08:17:31;9.93;;;7.43;;
13660;SDS011;6903;49.480;11.102;2023-06-26T08:19:56;7.70;;;6.97;;
13660;SDS011;6903;49.480;11.102;2023-06-26T08:22:22;8.52;;;7.50;;
13660;SDS011;6903;49.480;11.102;2023-06-26T08:24:48;7.60;;;6.90;;
13660;SDS011;6903;49.480;11.102;2023-06-26T08:27:14;7.95;;;6.80;;
13660;SDS011;6903;49.480;11.102;2023-06-26T08:29:39;8.75;;;7.60;;
13660;SDS011;6903;49.480;11.102;2023-06-26T08:32:04;7.88;;;7.07;;
13660;SDS011;6903;49.480;11.102;2023-06-26T08:34:30;7.80;;;7.10;;
13660;SDS011;6903;49.480;11.102;2023-06-26T08:36:55;7.45;;;6.50;;
13660;SDS011;6903;49.480;11.102;2023-06-26T08:39:20;8.02;;;7.05;;
13660;SDS011;6903;49.480;11.102;2023-06-26T08:41:46;8.18;;;7.07;;
13660;SDS011;6903;49.480;11.102;2023-06-26T08:44:11;8.50;;;7.15;;
13660;SDS011;6903;49.480;11.102;2023-06-26T08:46:36;8.40;;;7.60;;
13660;SDS011;6903;49.480;11.102;2023-06-26T08:52:10;8.02;;;7.32;;
13660;SDS011;6903;49.480;11.102;2023-06-26T08:54:42;8.45;;;7.38;;
13660;SDS011;6903;49.480;11.102;2023-06-26T08:57:11;8.23;;;7.43;;
13660;SDS011;6903;49.480;11.102;2023-06-26T08:59:36;8.10;;;7.40;;
13660;SDS011;6903;49.480;11.102;2023-06-26T09:02:03;7.88;;;7.07;;
13660;SDS011;6903;49.480;11.102;2023-06-26T09:04:28;7.60;;;7.00;;
13660;SDS011;6903;49.480;11.102;2023-06-26T09:06:55;8.48;;;7.30;;
13660;SDS011;6903;49.480;11.102;2023-06-26T09:09:20;8.15;;;7.45;;
13660;SDS011;6903;49.480;11.102;2023-06-26T09:11:45;7.70;;;7.00;;
13660;SDS011;6903;49.480;11.102;2023-06-26T09:14:11;8.60;;;7.78;;
13660;SDS011;6903;49.480;11.102;2023-06-26T09:16:41;8.25;;;7.45;;
13660;SDS011;6903;49.480;11.102;2023-06-26T09:19:13;8.60;;;7.38;;
13660;SDS011;6903;49.480;11.102;2023-06-26T09:21:42;8.30;;;7.50;;
13660;SDS011;6903;49.480;11.102;2023-06-26T09:24:08;8.13;;;7.43;;
13660;SDS011;6903;49.480;11.102;2023-06-26T09:26:35;10.80;;;7.78;;
13660;SDS011;6903;49.480;11.102;2023-06-26T09:29:02;8.32;;;7.40;;
13660;SDS011;6903;49.480;11.102;2023-06-26T09:31:28;7.43;;;6.78;;
13660;SDS011;6903;49.480;11.102;2023-06-26T09:34:00;7.47;;;6.78;;
13660;SDS011;6903;49.480;11.102;2023-06-26T09:36:27;9.50;;;7.78;;
13660;SDS011;6903;49.480;11.102;2023-06-26T09:38:58;7.55;;;6.68;;
13660;SDS011;6903;49.480;11.102;2023-06-26T09:41:26;7.50;;;6.80;;
13660;SDS011;6903;49.480;11.102;2023-06-26T09:43:52;7.25;;;6.55;;
13660;SDS011;6903;49.480;11.102;2023-06-26T09:48:48;6.82;;;6.22;;
13660;SDS011;6903;49.480;11.102;2023-06-26T09:51:14;6.47;;;5.90;;
13660;SDS011;6903;49.480;11.102;2023-06-26T09:53:42;6.72;;;6.13;;
13660;SDS011;6903;49.480;11.102;2023-06-26T09:56:10;8.45;;;6.75;;
13660;SDS011;6903;49.480;11.102;2023-06-26T09:58:42;6.53;;;5.93;;
13660;SDS011;6903;49.480;11.102;2023-06-26T10:01:08;6.30;;;5.80;;
13660;SDS011;6903;49.480;11.102;2023-06-26T10:03:34;6.95;;;6.35;;
13660;SDS011;6903;49.480;11.102;2023-06-26T10:06:00;6.70;;;6.10;;
13660;SDS011;6903;49.480;11.102;2023-06-26T10:08:27;7.75;;;6.00;;
13660;SDS011;6903;49.480;11.102;2023-06-26T10:10:54;6.53;;;6.03;;
13660;SDS011;6903;49.480;11.102;2023-06-26T10:13:24;6.80;;;6.13;;
13660;SDS011;6903;49.480;11.102;2023-06-26T10:15:59;6.60;;;6.07;;
13660;SDS011;6903;49.480;11.102;2023-06-26T10:18:25;7.07;;;6.43;;
13660;SDS011;6903;49.480;11.102;2023-06-26T10:20:53;7.03;;;6.43;;
13660;SDS011;6903;49.480;11.102;2023-06-26T10:23:22;6.93;;;6.32;;
13660;SDS011;6903;49.480;11.102;2023-06-26T10:25:49;6.82;;;6.13;;
13660;SDS011;6903;49.480;11.102;2023-06-26T10:28:16;6.85;;;6.25;;
13660;SDS011;6903;49.480;11.102;2023-06-26T10:30:43;6.55;;;5.95;;
13660;SDS011;6903;49.480;11.102;2023-06-26T10:33:09;7.35;;;6.65;;
13660;SDS011;6903;49.480;11.102;2023-06-26T10:35:43;6.57;;;5.97;;
13660;SDS011;6903;49.480;11.102;2023-06-26T10:38:09;7.32;;;6.65;;
13660;SDS011;6903;49.480;11.102;2023-06-26T10:43:07;6.47;;;5.88;;
13660;SDS011;6903;49.480;11.102;2023-06-26T10:45:33;6.95;;;6.25;;
13660;SDS011;6903;49.480;11.102;2023-06-26T10:48:00;6.70;;;6.10;;
13660;SDS011;6903;49.480;11.102;2023-06-26T10:50:29;6.68;;;5.97;;
13660;SDS011;6903;49.480;11.102;2023-06-26T10:53:07;7.00;;;6.40;;
13660;SDS011;6903;49.480;11.102;2023-06-26T11:01:22;7.13;;;6.30;;
13660;SDS011;6903;49.480;11.102;2023-06-26T11:04:05;7.57;;;6.22;;
13660;SDS011;6903;49.480;11.102;2023-06-26T11:06:32;7.28;;;6.57;;
13660;SDS011;6903;49.480;11.102;2023-06-26T11:14:17;7.13;;;6.53;;
13660;SDS011;6903;49.480;11.102;2023-06-26T11:16:43;6.80;;;6.18;;
13660;SDS011;6903;49.480;11.102;2023-06-26T11:19:12;6.53;;;5.82;;
13660;SDS011;6903;49.480;11.102;2023-06-26T11:21:38;6.85;;;6.20;;
13660;SDS011;6903;49.480;11.102;2023-06-26T11:24:04;7.40;;;6.50;;
13660;SDS011;6903;49.480;11.102;2023-06-26T11:26:32;6.55;;;5.88;;
13660;SDS011;6903;49.480;11.102;2023-06-26T11:29:03;7.03;;;6.43;;
13660;SDS011;6903;49.480;11.102;2023-06-26T11:31:29;7.25;;;6.55;;
13660;SDS011;6903;49.480;11.102;2023-06-26T11:33:56;7.72;;;6.38;;
13660;SDS011;6903;49.480;11.102;2023-06-26T11:36:24;7.93;;;6.13;;
13660;SDS011;6903;49.480;11.102;2023-06-26T11:38:53;6.40;;;5.90;;
13660;SDS011;6903;49.480;11.102;2023-06-26T11:41:20;6.60;;;6.07;;
13660;SDS011;6903;49.480;11.102;2023-06-26T11:43:46;6.47;;;5.88;;
13660;SDS011;6903;49.480;11.102;2023-06-26T11:46:12;6.75;;;6.15;;
13660;SDS011;6903;49.480;11.102;2023-06-26T11:48:38;5.80;;;5.30;;
13660;SDS011;6903;49.480;11.102;2023-06-26T11:51:04;5.70;;;5.20;;
13660;SDS011;6903;49.480;11.102;2023-06-26T11:53:30;6.30;;;5.70;;
13660;SDS011;6903;49.480;11.102;2023-06-26T11:55:55;5.80;;;5.30;;
13660;SDS011;6903;49.480;11.102;2023-06-26T11:58:22;5.53;;;5.03;;
13660;SDS011;6903;49.480;11.102;2023-06-26T12:00:47;5.63;;;5.03;;
13660;SDS011;6903;49.480;11.102;2023-06-26T12:03:13;5.63;;;5.20;;
13660;SDS011;6903;49.480;11.102;2023-06-26T12:05:39;5.85;;;5.15;;
13660;SDS011;6903;49.480;11.102;2023-06-26T12:08:05;5.70;;;5.20;;
13660;SDS011;6903;49.480;11.102;2023-06-26T12:10:32;5.40;;;4.97;;
13660;SDS011;6903;49.480;11.102;2023-06-26T12:12:58;5.35;;;4.85;;
13660;SDS011;6903;49.480;11.102;2023-06-26T12:15:25;5.53;;;5.03;;
13660;SDS011;6903;49.480;11.102;2023-06-26T12:17:50;5.68;;;5.05;;
13660;SDS011;6903;49.480;11.102;2023-06-26T12:20:22;4.80;;;4.32;;
13660;SDS011;6903;49.480;11.102;2023-06-26T12:22:50;4.85;;;4.35;;
13660;SDS011;6903;49.480;11.102;2023-06-26T12:25:20;4.53;;;4.13;;
13660;SDS011;6903;49.480;11.102;2023-06-26T12:27:47;5.15;;;4.65;;
13660;SDS011;6903;49.480;11.102;2023-06-26T12:30:13;4.88;;;4.43;;
13660;SDS011;6903;49.480;11.102;2023-06-26T12:32:38;4.93;;;4.47;;
13660;SDS011;6903;49.480;11.102;2023-06-26T12:35:03;7.18;;;5.20;;
13660;SDS011;6903;49.480;11.102;2023-06-26T12:37:29;5.65;;;4.90;;
13660;SDS011;6903;49.480;11.102;2023-06-26T12:40:02;5.13;;;4.72;;
13660;SDS011;6903;49.480;11.102;2023-06-26T12:42:32;5.05;;;4.65;;
13660;SDS011;6903;49.480;11.102;2023-06-26T12:44:58;5.13;;;4.68;;
13660;SDS011;6903;49.480;11.102;2023-06-26T12:47:25;5.50;;;5.00;;
13660;SDS011;6903;49.480;11.102;2023-06-26T12:49:51;5.43;;;5.03;;
13660;SDS011;6903;49.480;11.102;2023-06-26T12:52:17;5.97;;;4.90;;
13660;SDS011;6903;49.480;11.102;2023-06-26T12:54:46;5.30;;;4.80;;
13660;SDS011;6903;49.480;11.102;2023-06-26T12:57:12;5.50;;;5.07;;
13660;SDS011;6903;49.480;11.102;2023-06-26T12:59:41;5.53;;;5.03;;
13660;SDS011;6903;49.480;11.102;2023-06-26T13:02:07;5.75;;;5.25;;
13660;SDS011;6903;49.480;11.102;2023-06-26T13:04:33;5.28;;;4.88;;
13660;SDS011;6903;49.480;11.102;2023-06-26T13:06:58;6.00;;;5.50;;
13660;SDS011;6903;49.480;11.102;2023-06-26T13:09:24;5.35;;;4.85;;
13660;SDS011;6903;49.480;11.102;2023-06-26T13:11:53;5.40;;;4.90;;
13660;SDS011;6903;49.480;11.102;2023-06-26T13:14:18;5.55;;;4.55;;
13660;SDS011;6903;49.480;11.102;2023-06-26T13:16:44;5.45;;;4.95;;
13660;SDS011;6903;49.480;11.102;2023-06-26T13:19:09;5.40;;;4.90;;
13660;SDS011;6903;49.480;11.102;2023-06-26T13:21:35;5.30;;;4.80;;
13660;SDS011;6903;49.480;11.102;2023-06-26T13:24:01;5.20;;;4.80;;
13660;SDS011;6903;49.480;11.102;2023-06-26T13:26:28;5.30;;;4.80;;
13660;SDS011;6903;49.480;11.102;2023-06-26T13:28:54;6.30;;;5.20;;
13660;SDS011;6903;49.480;11.102;2023-06-26T13:31:20;6.00;;;5.40;;
13660;SDS011;6903;49.480;11.102;2023-06-26T13:33:46;5.85;;;5.35;;
13660;SDS011;6903;49.480;11.102;2023-06-26T13:36:14;5.90;;;5.13;;
13660;SDS011;6903;49.480;11.102;2023-06-26T13:38:40;6.68;;;5.20;;
13660;SDS011;6903;49.480;11.102;2023-06-26T13:41:05;6.65;;;5.60;;
13660;SDS011;6903;49.480;11.102;2023-06-26T13:43:31;5.43;;;4.93;;
13660;SDS011;6903;49.480;11.102;2023-06-26T13:45:56;6.82;;;5.20;;
13660;SDS011;6903;49.480;11.102;2023-06-26T13:48:22;6.82;;;5.63;;
13660;SDS011;6903;49.480;11.102;2023-06-26T13:50:50;5.80;;;5.20;;
13660;SDS011;6903;49.480;11.102;2023-06-26T13:53:16;5.95;;;5.40;;
13660;SDS011;6903;49.480;11.102;2023-06-26T13:55:42;7.03;;;4.88;;
13660;SDS011;6903;49.480;11.102;2023-06-26T13:58:08;5.45;;;4.88;;
13660;SDS011;6903;49.480;11.102;2023-06-26T14:00:34;6.88;;;5.15;;
13660;SDS011;6903;49.480;11.102;2023-06-26T14:03:00;6.13;;;5.53;;
13660;SDS011;6903;49.480;11.102;2023-06-26T14:05:26;6.28;;;5.32;;
13660;SDS011;6903;49.480;11.102;2023-06-26T14:07:52;6.22;;;5.63;;
13660;SDS011;6903;49.480;11.102;2023-06-26T14:10:19;5.75;;;5.32;;
13660;SDS011;6903;49.480;11.102;2023-06-26T14:12:44;5.50;;;5.07;;
13660;SDS011;6903;49.480;11.102;2023-06-26T14:15:10;8.38;;;5.55;;
13660;SDS011;6903;49.480;11.102;2023-06-26T14:17:35;6.50;;;5.32;;
13660;SDS011;6903;49.480;11.102;2023-06-26T14:20:00;6.22;;;5.72;;
13660;SDS011;6903;49.480;11.102;2023-06-26T14:22:26;5.93;;;5.43;;
13660;SDS011;6903;49.480;11.102;2023-06-26T14:24:51;6.38;;;5.78;;
13660;SDS011;6903;49.480;11.102;2023-06-26T14:27:16;6.28;;;5.70;;
13660;SDS011;6903;49.480;11.102;2023-06-26T14:29:42;6.25;;;5.68;;
13660;SDS011;6903;49.480;11.102;2023-06-26T14:32:07;6.00;;;5.40;;
13660;SDS011;6903;49.480;11.102;2023-06-26T14:34:33;6.53;;;5.95;;
13660;SDS011;6903;49.480;11.102;2023-06-26T14:36:58;5.97;;;5.47;;
13660;SDS011;6903;49.480;11.102;2023-06-26T14:39:24;6.97;;;6.28;;
13660;SDS011;6903;49.480;11.102;2023-06-26T14:41:49;6.03;;;5.53;;
13660;SDS011;6903;49.480;11.102;2023-06-26T14:44:15;6.35;;;5.75;;
13660;SDS011;6903;49.480;11.102;2023-06-26T14:46:40;7.45;;;6.13;;
13660;SDS011;6903;49.480;11.102;2023-06-26T14:49:05;6.13;;;5.57;;
13660;SDS011;6903;49.480;11.102;2023-06-26T14:51:31;8.27;;;7.53;;
13660;SDS011;6903;49.480;11.102;2023-06-26T14:53:56;7.07;;;6.38;;
13660;SDS011;6903;49.480;11.102;2023-06-26T14:56:22;6.32;;;5.72;;
13660;SDS011;6903;49.480;11.102;2023-06-26T14:58:47;6.30;;;5.80;;
13660;SDS011;6903;49.480;11.102;2023-06-26T15:01:13;6.90;;;6.30;;
13660;SDS011;6903;49.480;11.102;2023-06-26T15:03:41;6.47;;;5.97;;
13660;SDS011;6903;49.480;11.102;2023-06-26T15:06:07;8.27;;;6.25;;